Vremea acum in Braila - Romania

Vrei sa afli care e starea vremii acum in Braila - Romania? Dorim sa iti furnizam starea vremii pentru Braila - Romania. Starea vremii Braila - Romania pentru astazi.

Vremea acum in Braila

Temperatura: 2 °C

Se simte ca: -2.6 °C
Innorat: 0 %
Precipitatii: 0 %
Presiune atmosferica: 1017 hPa
Umiditate: 80%
Vizibilitate: 10 km
Vantul bate din W cu 19.1 km/h

Evolutia vremii in Braila pe ore

Ora: 17:00
Parțial noros
Temperatura: 1.9°C
Sansa de precipitatii: 0%
Ora Descriere Temp Se simte Precipitatii Umiditate Vant
00:00Parțial noros-2°0%90%SW 6.1 KM/H
01:00Parțial noros-0.2°-2.3°0%89%SW 6.1 KM/H
02:00Parțial noros-0.4°-2.5°0%89%SW 6.1 KM/H
03:00Parțial noros-0.6°-2.9°0%89%SW 6.5 KM/H
04:00Parțial noros-0.8°-3.4°0%88%SW 7.2 KM/H
05:00Parțial noros-1°-3.8°0%88%SSW 7.6 KM/H
06:00Parțial noros-1.1°-4.1°0%86%SW 7.9 KM/H
07:00Parțial noros-1.2°-4.3°0%83%SW 8.6 KM/H
08:00Parțial noros-1.3°-4.6°0%80%SW 9 KM/H
09:00Parțial noros0.1°-3°0%70%SW 9.4 KM/H
10:00Parțial noros1.6°-1.4°0%60%SW 10.1 KM/H
11:00Parțial noros0.2°0%50%SW 10.4 KM/H
12:00Parțial noros3.6°0.9°0%48%WSW 10.8 KM/H
13:00Parțial noros4.3°1.5°0%45%WSW 11.5 KM/H
14:00Parțial noros4.9°2.2°0%43%WSW 11.9 KM/H
15:00Parțial noros3.9°0.9°0%49%SW 11.9 KM/H
16:00Parțial noros2.9°-0.3°0%54%SW 12.2 KM/H
17:00Parțial noros1.9°-1.6°0%60%SSW 12.2 KM/H
18:00Parțial noros1.3°-2°0%65%SW 11.2 KM/H
19:00Parțial noros0.8°-2.5°0%69%SW 10.4 KM/H
20:00Parțial noros0.2°-2.9°0%74%SW 9.4 KM/H
21:00Parțial noros0.2°-2.1°0%74%SW 7.2 KM/H
22:00Parțial noros0.1°-1.3°0%74%SW 5.4 KM/H
23:00Parțial noros0.1°-0.5°0%74%SW 3.2 KM/H